Time;durP1;ratioP1;P1;durP2;ratioP2;P2;SDS_P1;SDS_P2;PMS_P1;PMS_P2;Temp;Humidity;BMP_temperature;BMP_pressure;BME280_temperature;BME280_humidity;BME280_pressure;Samples;Min_cycle;Max_cycle;Signal;HPM_P1;HPM_P2
2022/04/29 00:01:59;;;;;;;14.40;7.28;;;;;;;9.48;100.00;100786.94;5002139;28;20026;-85
2022/04/29 00:04:25;;;;;;;20.27;7.93;;;;;;;9.60;100.00;100812.03;5018803;28;20164;-86
2022/04/29 00:06:52;;;;;;;17.13;8.13;;;;;;;9.12;100.00;100740.47;5001026;28;20113;-84
2022/04/29 00:09:17;;;;;;;14.88;7.75;;;;;;;9.39;100.00;100786.84;5016316;28;20050;-84
2022/04/29 00:11:43;;;;;;;13.85;7.70;;;;;;;9.35;100.00;100782.03;5011272;28;20061;-85
2022/04/29 00:14:10;;;;;;;12.25;7.85;;;;;;;9.40;100.00;100790.28;5018509;28;20385;-84
2022/04/29 00:16:36;;;;;;;17.55;7.90;;;;;;;9.13;100.00;100763.06;5003189;28;20034;-85
2022/04/29 00:19:01;;;;;;;13.63;7.40;;;;;;;9.21;100.00;100781.50;5013818;28;20029;-84
2022/04/29 00:21:27;;;;;;;13.77;8.68;;;;;;;9.12;100.00;100779.75;4998940;28;20040;-84
2022/04/29 00:23:52;;;;;;;14.13;7.88;;;;;;;9.11;100.00;100781.53;5018202;28;20038;-85
2022/04/29 00:26:18;;;;;;;17.50;8.45;;;;;;;9.03;100.00;100772.72;5014912;28;20100;-83
2022/04/29 00:28:44;;;;;;;14.30;7.97;;;;;;;9.07;100.00;100779.38;5003523;28;20026;-87
2022/04/29 00:31:09;;;;;;;18.95;8.00;;;;;;;8.93;100.00;100768.34;5003276;28;20439;-85
2022/04/29 00:33:35;;;;;;;14.18;7.85;;;;;;;9.12;100.00;100795.47;4992552;28;20029;-86
2022/04/29 00:36:01;;;;;;;15.65;8.10;;;;;;;9.10;100.00;100794.78;5011566;28;20491;-83
2022/04/29 00:38:26;;;;;;;13.05;7.38;;;;;;;8.68;100.00;100733.94;5018927;28;20059;-84
2022/04/29 00:40:52;;;;;;;14.43;8.63;;;;;;;9.08;100.00;100786.25;5015721;28;20527;-84
2022/04/29 00:43:18;;;;;;;14.85;8.25;;;;;;;8.83;100.00;100751.81;5001864;28;20121;-83
2022/04/29 00:45:43;;;;;;;19.55;9.38;;;;;;;8.86;100.00;100752.38;4999052;28;20034;-83
2022/04/29 00:48:10;;;;;;;15.70;8.27;;;;;;;9.12;100.00;100777.94;5011193;28;20036;-83
2022/04/29 00:50:36;;;;;;;14.80;7.93;;;;;;;9.08;100.00;100781.81;5001983;28;20036;-83
2022/04/29 00:53:02;;;;;;;12.95;7.28;;;;;;;9.01;100.00;100772.91;5014301;28;20499;-83
2022/04/29 00:55:34;;;;;;;14.23;7.97;;;;;;;9.09;100.00;100769.56;5015087;28;20038;-83
2022/04/29 00:58:33;;;;;;;13.73;7.68;;;;;;;9.06;100.00;100777.72;4988993;28;20120;-82
2022/04/29 01:01:01;;;;;;;12.98;7.53;;;;;;;9.00;100.00;100766.81;4983753;28;20038;-84
2022/04/29 01:03:28;;;;;;;14.93;7.80;;;;;;;8.97;100.00;100764.47;5015046;28;20502;-86
2022/04/29 01:05:54;;;;;;;12.40;7.55;;;;;;;8.94;100.00;100750.84;4989022;28;20040;-85
2022/04/29 01:08:20;;;;;;;17.60;8.00;;;;;;;8.95;100.00;100766.41;5015063;28;20041;-84
2022/04/29 01:10:49;;;;;;;18.42;8.43;;;;;;;8.82;100.00;100739.69;5005384;28;20443;-84
2022/04/29 01:13:16;;;;;;;16.60;7.88;;;;;;;8.86;100.00;100751.56;5024689;28;20092;-86
2022/04/29 01:15:42;;;;;;;15.70;7.72;;;;;;;8.88;100.00;100760.09;5014972;28;20378;-85
2022/04/29 01:18:09;;;;;;;19.20;7.97;;;;;;;8.59;100.00;100713.84;5005997;28;20488;-86
2022/04/29 01:20:36;;;;;;;13.85;8.32;;;;;;;8.71;100.00;100738.91;5017262;28;20457;-85
2022/04/29 01:23:07;;;;;;;15.25;8.02;;;;;;;8.62;100.00;100725.81;5004240;28;20034;-85
2022/04/29 01:25:33;;;;;;;17.30;8.25;;;;;;;8.48;100.00;100717.41;5014215;28;20140;-85
2022/04/29 01:27:59;;;;;;;13.23;8.13;;;;;;;8.40;100.00;100712.03;5005178;28;20112;-85
2022/04/29 01:30:25;;;;;;;14.85;8.48;;;;;;;8.62;100.00;100742.34;5014597;28;20037;-85
2022/04/29 01:32:53;;;;;;;21.05;8.85;;;;;;;8.49;100.00;100724.28;5003101;28;20030;-86
2022/04/29 01:35:19;;;;;;;17.45;9.02;;;;;;;8.60;100.00;100744.28;5002161;28;20057;-85
2022/04/29 01:37:47;;;;;;;15.65;8.98;;;;;;;8.21;100.00;100686.69;5014282;28;20058;-84
2022/04/29 01:40:14;;;;;;;16.17;8.63;;;;;;;8.52;100.00;100739.72;5004517;28;20096;-86
2022/04/29 01:42:41;;;;;;;16.83;8.43;;;;;;;8.47;100.00;100735.88;5007380;28;20045;-84
2022/04/29 01:45:08;;;;;;;15.30;9.40;;;;;;;8.50;100.00;100733.00;5013368;28;20056;-85
2022/04/29 01:47:34;;;;;;;15.38;8.10;;;;;;;8.41;100.00;100717.13;5007337;28;20049;-85
2022/04/29 01:50:00;;;;;;;17.42;8.13;;;;;;;8.38;100.00;100711.34;5014144;28;20025;-84
2022/04/29 01:52:27;;;;;;;16.00;8.23;;;;;;;8.20;100.00;100685.06;5018927;28;20029;-84
2022/04/29 01:54:52;;;;;;;16.15;8.77;;;;;;;8.24;100.00;100678.56;5019365;28;20472;-85
2022/04/29 01:57:18;;;;;;;13.80;9.15;;;;;;;8.42;100.00;100713.53;5001006;28;20069;-85
2022/04/29 01:59:44;;;;;;;15.25;9.30;;;;;;;8.35;100.00;100698.53;5001394;28;20029;-85
2022/04/29 02:02:10;;;;;;;18.27;9.30;;;;;;;8.27;100.00;100688.78;5020537;28;20026;-84
2022/04/29 02:04:36;;;;;;;18.38;9.60;;;;;;;8.46;100.00;100723.75;5008953;28;20041;-84
2022/04/29 02:07:04;;;;;;;15.45;8.52;;;;;;;8.21;100.00;100710.25;5003877;28;20029;-85
2022/04/29 02:09:33;;;;;;;19.38;9.52;;;;;;;8.15;100.00;100702.00;5012810;28;20040;-86
2022/04/29 02:12:05;;;;;;;18.13;9.32;;;;;;;8.13;100.00;100693.47;5001610;28;20022;-85
2022/04/29 02:14:39;;;;;;;17.17;9.07;;;;;;;8.02;100.00;100685.72;5017179;28;20046;-85
2022/04/29 02:17:06;;;;;;;15.30;9.70;;;;;;;8.16;100.00;100715.91;5013121;28;20030;-85
2022/04/29 02:19:33;;;;;;;16.73;9.85;;;;;;;8.08;100.00;100700.06;5012965;28;20069;-85
2022/04/29 02:22:00;;;;;;;16.52;10.13;;;;;;;8.14;100.00;100715.19;5003486;28;20030;-85
2022/04/29 02:24:26;;;;;;;17.73;10.15;;;;;;;8.22;100.00;100711.91;5022981;28;20121;-85
2022/04/29 02:26:53;;;;;;;16.05;9.25;;;;;;;8.25;100.00;100709.00;5001950;28;20362;-84
2022/04/29 02:29:19;;;;;;;17.30;9.25;;;;;;;8.28;100.00;100727.06;5003814;28;20026;-85
2022/04/29 02:31:45;;;;;;;19.58;10.15;;;;;;;8.08;100.00;100700.06;5000714;28;20029;-85
2022/04/29 02:34:11;;;;;;;14.95;9.43;;;;;;;8.14;100.00;100700.34;5005816;28;20392;-84
2022/04/29 02:36:36;;;;;;;21.63;9.75;;;;;;;8.14;100.00;100697.72;5013030;28;20030;-84
2022/04/29 02:39:03;;;;;;;21.02;10.13;;;;;;;8.38;100.00;100727.06;5001600;28;20117;-84
2022/04/29 02:41:29;;;;;;;14.68;9.88;;;;;;;8.05;100.00;100680.22;5004317;28;20125;-85
2022/04/29 02:43:55;;;;;;;13.23;9.40;;;;;;;8.33;100.00;100727.47;5001147;28;20113;-84
2022/04/29 02:46:21;;;;;;;19.55;10.98;;;;;;;8.21;100.00;100708.47;5012076;28;20382;-83
2022/04/29 02:48:49;;;;;;;22.63;11.23;;;;;;;8.12;100.00;100699.66;5003647;28;20037;-83
2022/04/29 02:51:15;;;;;;;17.95;9.88;;;;;;;8.28;100.00;100711.38;4985563;28;20029;-83
2022/04/29 02:53:43;;;;;;;19.10;9.45;;;;;;;8.34;100.00;100716.03;4999263;28;20056;-83
2022/04/29 02:56:09;;;;;;;17.70;9.23;;;;;;;8.38;100.00;100716.59;5022230;28;20076;-83
2022/04/29 02:58:34;;;;;;;17.67;9.82;;;;;;;8.31;100.00;100700.63;5006837;28;20120;-83
2022/04/29 03:01:02;;;;;;;17.20;10.10;;;;;;;8.31;100.00;100705.00;4994158;28;20040;-83
2022/04/29 03:03:28;;;;;;;18.45;9.32;;;;;;;8.37;100.00;100722.78;4986432;28;20062;-83
2022/04/29 03:05:54;;;;;;;22.85;10.30;;;;;;;8.12;100.00;100709.28;5011733;28;20030;-84
2022/04/29 03:08:20;;;;;;;17.70;10.35;;;;;;;8.20;100.00;100711.22;5012386;28;20576;-83
2022/04/29 03:10:47;;;;;;;20.13;9.88;;;;;;;8.32;100.00;100717.97;5000764;28;20018;-84
2022/04/29 03:13:16;;;;;;;18.98;10.45;;;;;;;8.21;100.00;100716.31;4993169;28;20054;-83
2022/04/29 03:15:42;;;;;;;17.90;9.98;;;;;;;8.25;100.00;100720.31;5011355;28;20032;-83
2022/04/29 03:18:22;;;;;;;17.83;10.45;;;;;;;8.15;100.00;100702.00;5003590;28;20480;-83
2022/04/29 03:20:56;;;;;;;19.95;11.35;;;;;;;8.30;100.00;100714.66;4982506;28;20030;-83
2022/04/29 03:23:22;;;;;;;19.52;9.77;;;;;;;8.28;100.00;100706.13;4998559;28;20112;-83
2022/04/29 03:25:48;;;;;;;22.38;11.57;;;;;;;8.15;100.00;100690.69;5015624;28;20057;-84
2022/04/29 03:28:15;;;;;;;18.52;11.48;;;;;;;7.95;100.00;100674.19;5012320;28;20116;-84
2022/04/29 03:30:41;;;;;;;18.85;11.20;;;;;;;8.21;100.00;100723.31;4999730;28;20109;-84
2022/04/29 03:33:08;;;;;;;21.13;12.00;;;;;;;8.15;100.00;100716.84;5011695;28;20041;-85
2022/04/29 03:35:44;;;;;;;24.05;12.60;;;;;;;7.95;100.00;100685.44;5012377;28;20030;-85
2022/04/29 03:38:10;;;;;;;21.80;11.88;;;;;;;8.06;100.00;100702.00;5001913;28;20024;-83
2022/04/29 03:40:36;;;;;;;22.77;11.85;;;;;;;8.18;100.00;100718.38;5010504;28;20116;-83
2022/04/29 03:43:02;;;;;;;19.65;11.93;;;;;;;8.25;100.00;100698.53;5004840;28;20161;-85
2022/04/29 03:45:29;;;;;;;19.67;11.52;;;;;;;8.03;100.00;100663.03;5011494;28;20036;-84
2022/04/29 03:47:58;;;;;;;19.83;13.93;;;;;;;8.16;100.00;100689.75;5012164;28;20029;-83
2022/04/29 03:50:25;;;;;;;22.05;13.32;;;;;;;8.26;100.00;100702.84;5004971;28;20176;-85
2022/04/29 03:52:56;;;;;;;26.77;14.13;;;;;;;8.24;100.00;100700.34;4985850;28;20095;-83
2022/04/29 03:55:25;;;;;;;20.23;13.65;;;;;;;8.15;100.00;100696.75;5010974;28;20163;-84
2022/04/29 03:57:53;;;;;;;29.67;15.73;;;;;;;8.11;100.00;100695.38;5017275;28;20132;-85
2022/04/29 04:00:20;;;;;;;26.25;15.07;;;;;;;8.17;100.00;100698.41;4998949;28;20028;-84
2022/04/29 04:02:45;;;;;;;31.90;15.57;;;;;;;8.21;100.00;100694.56;5011329;28;20065;-84
2022/04/29 04:05:11;;;;;;;24.00;13.85;;;;;;;8.21;100.00;100695.38;5001654;28;20053;-84
2022/04/29 04:07:37;;;;;;;21.33;14.05;;;;;;;8.13;100.00;100695.22;5011227;28;20044;-84
2022/04/29 04:10:05;;;;;;;27.40;14.77;;;;;;;8.21;100.00;100699.78;5003133;28;20026;-84
2022/04/29 04:12:42;;;;;;;27.40;15.52;;;;;;;8.23;100.00;100703.09;4999965;28;20036;-85
2022/04/29 04:15:09;;;;;;;28.10;15.48;;;;;;;8.05;100.00;100680.22;4992593;28;20037;-84
2022/04/29 04:17:41;;;;;;;;;;;;;;;8.17;100.00;100695.78;4998308;28;20037;-83
2022/04/29 04:20:09;;;;;;;25.65;14.55;;;;;;;8.09;100.00;100686.00;5001282;28;19963;-84
2022/04/29 04:22:35;;;;;;;29.02;15.25;;;;;;;8.24;100.00;100704.72;5011476;28;20040;-84
2022/04/29 04:25:07;;;;;;;28.88;15.65;;;;;;;7.77;100.00;100640.88;4997775;28;20092;-85
2022/04/29 04:27:33;;;;;;;27.25;15.18;;;;;;;7.96;100.00;100686.28;4989075;28;20042;-85
2022/04/29 04:30:00;;;;;;;29.25;15.98;;;;;;;7.70;100.00;100678.97;5002229;28;20443;-84
2022/04/29 04:32:27;;;;;;;28.30;14.95;;;;;;;7.61;100.00;100698.91;5007115;28;20578;-84
2022/04/29 04:34:54;;;;;;;22.15;14.68;;;;;;;7.78;100.00;100705.25;5019751;28;20427;-85
2022/04/29 04:37:21;;;;;;;33.63;15.48;;;;;;;8.03;100.00;100708.31;5002265;28;20495;-84
2022/04/29 04:39:48;;;;;;;27.13;15.48;;;;;;;7.92;100.00;100700.59;5008089;28;20045;-85
2022/04/29 04:42:14;;;;;;;29.35;16.60;;;;;;;8.03;100.00;100708.31;5007095;28;20037;-85
2022/04/29 04:44:40;;;;;;;29.73;16.92;;;;;;;7.99;100.00;100689.47;5007805;28;20053;-85
2022/04/29 04:47:07;;;;;;;27.88;16.05;;;;;;;8.04;100.00;100707.34;5014873;28;20033;-85
2022/04/29 04:49:33;;;;;;;29.05;16.85;;;;;;;7.94;100.00;100688.22;5008462;28;20365;-86
2022/04/29 04:51:59;;;;;;;32.83;17.63;;;;;;;7.91;100.00;100685.88;5005303;28;20071;-84
2022/04/29 04:54:24;;;;;;;33.35;17.70;;;;;;;8.06;100.00;100694.97;5007348;28;20124;-84
2022/04/29 04:56:50;;;;;;;29.23;17.42;;;;;;;7.91;100.00;100683.25;5005552;28;20058;-86
2022/04/29 04:59:15;;;;;;;26.10;16.80;;;;;;;7.96;100.00;100681.06;5006030;28;20029;-84
2022/04/29 05:01:41;;;;;;;25.65;15.93;;;;;;;8.04;100.00;100683.00;5014559;28;20496;-84
2022/04/29 05:04:08;;;;;;;33.72;17.42;;;;;;;8.05;100.00;100680.22;4986358;28;20081;-86
2022/04/29 05:06:36;;;;;;;29.20;18.30;;;;;;;8.32;100.00;100702.28;5005604;28;20025;-85
2022/04/29 05:09:06;;;;;;;26.58;16.30;;;;;;;8.42;100.00;100717.97;5001143;28;20030;-84
2022/04/29 05:11:32;;;;;;;42.20;18.55;;;;;;;8.35;100.00;100695.91;4987903;28;20041;-84
2022/04/29 05:13:58;;;;;;;30.38;17.42;;;;;;;8.39;100.00;100718.25;5012508;28;20587;-84
2022/04/29 05:16:24;;;;;;;37.05;19.52;;;;;;;8.34;100.00;100705.56;5004061;28;20125;-83
2022/04/29 05:18:49;;;;;;;35.63;18.77;;;;;;;8.26;100.00;100705.44;5021591;28;20040;-83
2022/04/29 05:21:15;;;;;;;33.85;19.33;;;;;;;8.29;100.00;100718.25;4998784;28;20030;-83
2022/04/29 05:23:42;;;;;;;33.50;17.85;;;;;;;8.36;100.00;100721.94;5003839;28;20087;-85
2022/04/29 05:26:08;;;;;;;28.48;17.95;;;;;;;8.36;100.00;100718.53;4989134;28;20472;-84
2022/04/29 05:28:34;;;;;;;39.25;17.77;;;;;;;8.42;100.00;100724.00;5018668;28;20026;-83
2022/04/29 05:31:01;;;;;;;35.40;18.77;;;;;;;8.31;100.00;100695.38;5014469;28;20030;-84
2022/04/29 05:33:27;;;;;;;27.95;17.92;;;;;;;8.47;100.00;100725.41;5019150;28;20103;-84
2022/04/29 05:35:54;;;;;;;31.75;17.48;;;;;;;8.50;100.00;100719.91;5004285;28;20543;-84
2022/04/29 05:38:20;;;;;;;36.28;19.25;;;;;;;8.36;100.00;100706.25;5019527;28;20400;-85
2022/04/29 05:43:30;;;;;;;41.15;21.27;;;;;;;8.51;100.00;100732.84;5014045;28;20452;-85
2022/04/29 05:45:56;;;;;;;39.78;21.75;;;;;;;8.09;100.00;100646.78;5014089;28;20498;-84
2022/04/29 05:48:22;;;;;;;38.17;20.98;;;;;;;8.70;100.00;100737.25;5014316;28;20041;-83
2022/04/29 05:50:49;;;;;;;35.78;21.40;;;;;;;8.48;100.00;100699.06;5014173;28;20038;-84
2022/04/29 05:53:15;;;;;;;39.83;22.70;;;;;;;8.88;100.00;100736.53;5001844;28;20124;-84
2022/04/29 05:55:42;;;;;;;39.85;24.25;;;;;;;8.93;100.00;100741.31;5014164;28;20033;-84
2022/04/29 05:58:08;;;;;;;38.88;21.38;;;;;;;8.96;100.00;100746.31;5000339;28;20034;-85
2022/04/29 06:00:34;;;;;;;33.83;20.45;;;;;;;9.06;100.00;100747.09;5003151;28;20033;-85
2022/04/29 06:03:00;;;;;;;32.83;19.67;;;;;;;9.16;100.00;100744.44;5006916;28;20038;-86
2022/04/29 06:05:26;;;;;;;46.05;22.67;;;;;;;9.18;100.00;100750.38;5013517;28;20145;-86
2022/04/29 06:07:52;;;;;;;34.95;21.23;;;;;;;9.27;100.00;100748.69;5013591;28;20113;-87
2022/04/29 06:10:19;;;;;;;34.55;21.15;;;;;;;9.05;100.00;100692.25;5000695;28;20440;-86
2022/04/29 06:12:46;;;;;;;34.17;20.83;;;;;;;9.32;100.00;100740.41;4999829;28;20096;-86
2022/04/29 06:15:19;;;;;;;44.00;22.63;;;;;;;9.42;100.00;100746.41;5013469;28;20441;-87
2022/04/29 06:17:45;;;;;;;31.95;21.02;;;;;;;9.38;100.00;100726.69;5013811;28;20033;-87
2022/04/29 06:20:14;;;;;;;38.53;22.45;;;;;;;9.42;100.00;100746.41;4988573;28;20048;-86
2022/04/29 06:22:46;;;;;;;38.10;21.73;;;;;;;9.54;100.00;100755.75;5019036;28;20030;-86
2022/04/29 06:25:11;;;;;;;37.78;22.77;;;;;;;9.44;100.00;100741.88;5012762;28;20030;-87
2022/04/29 06:27:38;;;;;;;39.10;22.23;;;;;;;9.75;100.00;100749.44;4987578;28;20026;-87
2022/04/29 06:30:08;;;;;;;37.00;21.30;;;;;;;9.76;100.00;100743.22;5019711;28;20499;-86
2022/04/29 06:32:35;;;;;;;36.85;20.63;;;;;;;9.67;100.00;100716.06;5009839;28;20030;-88
2022/04/29 06:35:02;;;;;;;42.15;22.25;;;;;;;10.15;100.00;100757.88;5002772;28;20476;-88
2022/04/29 06:37:28;;;;;;;40.75;22.55;;;;;;;10.40;100.00;100758.94;4997363;28;20034;-86
2022/04/29 06:39:54;;;;;;;36.65;19.85;;;;;;;10.22;100.00;100705.59;5005368;28;20038;-87
2022/04/29 06:42:20;;;;;;;36.88;21.65;;;;;;;10.36;100.00;100741.81;5021474;28;20042;-89
2022/04/29 06:44:46;;;;;;;34.35;20.60;;;;;;;10.29;100.00;100720.59;5001115;28;20088;-87
2022/04/29 06:47:12;;;;;;;33.80;19.13;;;;;;;9.90;100.00;100683.38;5001385;28;20080;-88
2022/04/29 06:49:38;;;;;;;35.58;18.35;;;;;;;9.84;100.00;100722.34;5017422;28;20046;-88
2022/04/29 06:52:04;;;;;;;36.08;18.77;;;;;;;9.88;100.00;100735.97;5012129;28;20416;-90
2022/04/29 06:54:35;;;;;;;27.77;19.75;;;;;;;9.81;100.00;100722.59;5007215;28;20030;-91
2022/04/29 06:57:01;;;;;;;36.25;17.85;;;;;;;9.83;100.00;100722.47;4991052;28;20108;-87
2022/04/29 06:59:27;;;;;;;33.10;17.63;;;;;;;9.77;100.00;100723.06;5001469;28;20044;-85
2022/04/29 07:01:52;;;;;;;28.90;16.73;;;;;;;10.09;100.00;100747.97;5002176;28;20058;-83
2022/04/29 07:04:18;;;;;;;28.25;16.55;;;;;;;10.15;100.00;100742.94;5019168;28;20036;-88
2022/04/29 07:06:44;;;;;;;32.58;17.58;;;;;;;10.17;100.00;100732.31;5008430;28;20029;-87
2022/04/29 07:09:10;;;;;;;30.60;16.95;;;;;;;10.40;100.00;100751.06;4993200;28;20026;-86
2022/04/29 07:11:37;;;;;;;29.40;18.23;;;;;;;10.21;100.00;100706.59;5007322;28;20026;-90
2022/04/29 07:14:13;;;;;;;34.60;18.27;;;;;;;9.87;100.00;100668.75;4985762;28;20463;-88
2022/04/29 07:16:41;;;;;;;31.05;18.50;;;;;;;9.84;100.00;100709.22;4986688;28;20510;-87
2022/04/29 07:19:17;;;;;;;31.25;17.50;;;;;;;9.60;100.00;100685.34;5010177;28;20107;-87
2022/04/29 07:21:43;;;;;;;31.58;17.15;;;;;;;9.63;100.00;100701.59;4998374;28;20038;-88
2022/04/29 07:24:08;;;;;;;28.63;15.82;;;;;;;9.61;100.00;100700.09;4986783;28;20042;-90
2022/04/29 07:26:36;;;;;;;31.40;17.25;;;;;;;9.83;100.00;100730.34;4988636;28;20033;-86
2022/04/29 07:29:02;;;;;;;31.52;17.30;;;;;;;10.08;100.00;100768.16;5003274;28;20037;-88
2022/04/29 07:31:29;;;;;;;27.75;15.52;;;;;;;9.94;100.00;100750.28;4985415;28;20077;-86
2022/04/29 07:33:55;;;;;;;36.78;18.25;;;;;;;10.04;100.00;100758.09;4984025;28;20033;-87
2022/04/29 07:41:49;;;;;;;39.95;18.08;;;;;;;10.45;100.00;100763.75;5010750;28;20030;-87
2022/04/29 07:44:16;;;;;;;29.92;16.85;;;;;;;10.48;100.00;100749.50;5011048;28;20076;-89
2022/04/29 07:46:45;;;;;;;34.78;18.08;;;;;;;10.39;100.00;100759.91;5001197;28;20117;-87
2022/04/29 07:49:12;;;;;;;29.88;17.42;;;;;;;10.60;100.00;100764.03;4997195;28;20033;-86
2022/04/29 07:51:38;;;;;;;30.10;17.40;;;;;;;10.48;100.00;100731.13;5000303;28;20022;-87
2022/04/29 07:54:05;;;;;;;34.17;18.30;;;;;;;10.46;100.00;100754.91;4991858;28;20040;-86
2022/04/29 07:56:30;;;;;;;40.13;18.50;;;;;;;10.50;100.00;100763.31;5000702;28;20025;-87
2022/04/29 07:58:57;;;;;;;34.75;17.48;;;;;;;10.43;100.00;100763.09;4996589;28;20415;-86
2022/04/29 08:01:25;;;;;;;30.15;16.48;;;;;;;10.18;100.00;100727.88;4988909;28;20034;-88
2022/04/29 08:03:50;;;;;;;28.75;15.75;;;;;;;10.36;100.00;100733.94;5009412;28;20057;-87
2022/04/29 08:06:16;;;;;;;25.23;14.82;;;;;;;10.16;100.00;100722.81;5005875;28;20073;-86
2022/04/29 08:08:42;;;;;;;34.35;15.13;;;;;;;10.36;100.00;100764.63;5018104;28;20034;-86
2022/04/29 08:11:07;;;;;;;22.33;13.90;;;;;;;10.36;100.00;100754.94;5014235;28;20026;-88
2022/04/29 08:13:33;;;;;;;24.88;15.50;;;;;;;10.43;100.00;100758.66;5014287;28;20168;-86
2022/04/29 08:15:59;;;;;;;31.92;18.08;;;;;;;10.39;100.00;100736.28;5014571;28;20116;-87
2022/04/29 08:18:26;;;;;;;30.95;18.42;;;;;;;10.90;100.00;100771.63;5013557;28;20046;-87
2022/04/29 08:20:52;;;;;;;34.92;17.80;;;;;;;10.90;100.00;100726.97;5016375;28;20469;-87
2022/04/29 08:23:18;;;;;;;35.35;20.20;;;;;;;11.39;100.00;100771.94;4998757;28;20083;-87
2022/04/29 08:25:47;;;;;;;36.00;18.77;;;;;;;11.50;100.00;100734.03;5012179;28;20022;-87
2022/04/29 08:28:13;;;;;;;30.63;18.95;;;;;;;11.96;100.00;100772.31;5001043;28;20030;-87
2022/04/29 08:30:38;;;;;;;31.05;18.80;;;;;;;12.23;100.00;100773.06;5003867;28;20029;-86
2022/04/29 08:33:04;;;;;;;30.23;18.67;;;;;;;12.33;100.00;100762.38;4999165;28;20038;-86
2022/04/29 08:35:30;;;;;;;25.83;17.95;;;;;;;12.45;100.00;100768.13;5001125;28;20022;-87
2022/04/29 08:37:57;;;;;;;40.58;18.48;;;;;;;12.70;100.00;100776.88;5004555;28;20048;-86
2022/04/29 08:40:24;;;;;;;31.52;16.67;;;;;;;12.57;96.87;100779.97;5021147;28;20107;-87
2022/04/29 08:42:51;;;;;;;26.58;17.02;;;;;;;12.31;96.27;100774.88;5002771;28;20034;-86
2022/04/29 08:45:18;;;;;;;26.77;17.23;;;;;;;12.26;95.44;100778.00;5003564;28;20033;-86
2022/04/29 08:47:46;;;;;;;24.65;15.77;;;;;;;12.36;96.83;100778.66;5005985;28;20112;-88
2022/04/29 08:50:16;;;;;;;24.15;15.48;;;;;;;12.64;94.05;100780.97;5016546;28;20025;-87
2022/04/29 08:52:44;;;;;;;26.00;15.27;;;;;;;12.52;92.07;100734.88;5020439;28;20054;-87
2022/04/29 09:00:44;;;;;;;27.10;14.48;;;;;;;13.37;84.96;100786.31;5012184;28;20052;-87
2022/04/29 09:03:23;;;;;;;22.98;14.45;;;;;;;13.56;85.58;100790.41;4997627;28;20026;-88
2022/04/29 09:05:50;;;;;;;18.08;13.05;;;;;;;14.01;85.09;100795.13;5010437;28;20360;-87
2022/04/29 09:08:18;;;;;;;17.67;13.23;;;;;;;14.35;84.41;100795.75;5003660;28;20068;-88
2022/04/29 09:10:48;;;;;;;25.08;14.77;;;;;;;14.08;80.97;100761.75;5004517;28;20084;-89
2022/04/29 09:13:16;;;;;;;26.98;13.43;;;;;;;14.68;80.90;100804.22;4987534;28;20046;-88
2022/04/29 09:15:50;;;;;;;19.35;13.25;;;;;;;14.79;79.58;100783.72;5007448;28;20037;-89
2022/04/29 09:18:39;;;;;;;18.40;13.77;;;;;;;14.53;77.32;100796.28;5007703;28;20037;-90
2022/04/29 09:21:07;;;;;;;18.55;13.93;;;;;;;14.50;76.75;100801.06;5014321;28;20080;-89
2022/04/29 09:23:36;;;;;;;15.30;13.27;;;;;;;14.14;76.58;100795.38;5004949;28;20061;-88
2022/04/29 09:26:05;;;;;;;14.85;12.63;;;;;;;13.94;77.42;100788.88;4997202;28;20109;-89
2022/04/29 09:28:34;;;;;;;24.10;13.52;;;;;;;14.02;76.66;100788.03;5000508;28;20092;-88
2022/04/29 09:31:01;;;;;;;18.25;12.65;;;;;;;14.03;76.70;100777.28;5014815;28;20076;-89
2022/04/29 09:33:28;;;;;;;22.33;14.30;;;;;;;14.22;76.67;100772.56;5015115;28;20038;-90
2022/04/29 09:35:55;;;;;;;18.83;14.18;;;;;;;14.65;75.69;100799.31;4990535;28;20064;-86
2022/04/29 09:41:08;;;;;;;17.75;13.45;;;;;;;14.91;76.26;100797.31;5000005;28;20037;-85
2022/04/29 09:43:44;;;;;;;18.10;13.90;;;;;;;15.31;74.49;100779.38;5023407;28;20026;-85
2022/04/29 09:46:18;;;;;;;16.45;13.20;;;;;;;15.18;73.74;100793.25;5000726;28;20045;-84
2022/04/29 09:49:06;;;;;;;23.65;13.32;;;;;;;14.93;74.62;100774.94;5004471;28;20108;-86
2022/04/29 09:51:48;;;;;;;19.63;12.88;;;;;;;14.79;73.59;100779.22;5019378;28;20496;-90
2022/04/29 09:54:17;;;;;;;19.23;13.00;;;;;;;14.64;74.56;100797.66;4988276;28;20036;-85
2022/04/29 09:57:01;;;;;;;18.45;11.98;;;;;;;14.56;75.50;100795.09;5005043;28;20034;-84
2022/04/29 09:59:41;;;;;;;19.98;12.73;;;;;;;14.46;75.11;100794.50;5001723;28;20112;-84
2022/04/29 10:02:08;;;;;;;16.25;13.70;;;;;;;14.18;74.41;100806.41;5001857;28;20041;-86
2022/04/29 10:04:36;;;;;;;19.70;13.88;;;;;;;13.95;74.15;100803.72;5002723;28;20384;-85
2022/04/29 10:07:07;;;;;;;19.13;13.65;;;;;;;13.97;73.98;100801.75;5013407;28;20030;-86
2022/04/29 10:09:39;;;;;;;20.10;13.65;;;;;;;13.61;75.27;100760.03;5006548;28;20246;-84
2022/04/29 10:12:10;;;;;;;16.25;13.38;;;;;;;13.40;75.41;100798.34;4987312;28;20049;-85
2022/04/29 10:14:44;;;;;;;15.40;13.15;;;;;;;13.49;76.35;100788.63;5013382;28;20180;-86
2022/04/29 10:23:12;;;;;;;20.33;13.27;;;;;;;13.54;74.85;100787.09;5020702;28;20079;-84
2022/04/29 10:25:46;;;;;;;19.92;13.32;;;;;;;13.44;75.36;100804.94;5018939;28;20049;-86
2022/04/29 10:28:16;;;;;;;19.67;13.27;;;;;;;13.22;74.90;100809.91;5018961;28;20069;-85
2022/04/29 10:30:43;;;;;;;16.05;12.93;;;;;;;13.10;75.40;100798.91;4997164;28;20105;-84
2022/04/29 10:33:22;;;;;;;20.08;13.68;;;;;;;12.93;76.58;100800.72;5012757;28;20059;-84
2022/04/29 10:35:50;;;;;;;22.88;13.82;;;;;;;12.48;77.10;100805.53;4995222;28;20480;-85
2022/04/29 10:38:31;;;;;;;19.48;13.68;;;;;;;12.38;77.49;100794.31;5012761;28;20598;-85
2022/04/29 10:41:16;;;;;;;21.45;14.15;;;;;;;12.02;78.13;100795.41;5012442;28;20116;-85
2022/04/29 10:43:46;;;;;;;19.55;13.05;;;;;;;11.77;78.55;100790.00;4989467;28;20045;-85
2022/04/29 10:46:13;;;;;;;23.17;13.48;;;;;;;11.66;79.13;100782.41;5001494;28;20480;-84
2022/04/29 10:48:40;;;;;;;19.05;13.32;;;;;;;11.50;79.93;100784.00;4998991;28;20041;-85
2022/04/29 10:51:16;;;;;;;23.65;14.48;;;;;;;11.56;79.86;100780.72;5016503;28;20025;-85
2022/04/29 10:53:44;;;;;;;24.83;14.65;;;;;;;11.61;80.81;100776.81;4985357;28;20034;-86
2022/04/29 10:56:29;;;;;;;20.55;14.32;;;;;;;11.69;80.22;100776.84;5019410;28;20037;-85
2022/04/29 10:59:04;;;;;;;19.98;14.20;;;;;;;11.73;81.26;100778.16;5010811;28;20129;-85
2022/04/29 11:01:34;;;;;;;51.90;17.95;;;;;;;11.52;81.00;100734.69;5011374;28;20030;-84
2022/04/29 11:04:20;;;;;;;22.45;14.43;;;;;;;12.02;81.35;100771.72;5012238;28;20033;-86
2022/04/29 11:06:47;;;;;;;23.83;14.55;;;;;;;12.32;80.69;100766.81;4990043;28;20136;-85
2022/04/29 11:09:48;;;;;;;31.35;16.15;;;;;;;12.49;80.01;100758.91;5003278;28;20502;-85
2022/04/29 11:12:59;;;;;;;21.08;14.75;;;;;;;12.82;80.95;100756.28;4988554;28;20036;-84
2022/04/29 11:15:40;;;;;;;22.73;13.88;;;;;;;12.85;78.78;100755.94;4974307;28;20050;-85
2022/04/29 11:18:14;;;;;;;58.38;17.33;;;;;;;12.43;76.15;100740.16;4973792;28;20097;-85
2022/04/29 11:20:42;;;;;;;19.17;13.13;;;;;;;12.46;76.86;100759.25;4984056;28;20064;-84
2022/04/29 11:25:59;;;;;;;21.92;13.40;;;;;;;12.50;78.03;100727.16;5018264;28;20373;-83
2022/04/29 11:28:26;;;;;;;16.27;13.10;;;;;;;12.38;77.76;100760.06;5022893;28;20042;-84
2022/04/29 11:31:06;;;;;;;22.50;14.25;;;;;;;12.50;78.20;100742.13;5000891;28;20017;-85
2022/04/29 11:33:33;;;;;;;16.48;13.13;;;;;;;12.52;77.02;100746.25;5004258;28;20029;-84
2022/04/29 11:36:11;;;;;;;28.73;14.68;;;;;;;12.62;77.52;100755.78;4985315;28;20504;-85
2022/04/29 11:38:46;;;;;;;21.35;14.00;;;;;;;12.64;75.93;100765.19;5005722;28;20037;-85
2022/04/29 11:41:30;;;;;;;21.17;14.98;;;;;;;12.80;78.50;100758.25;5002450;28;20065;-84